Time;durP1;ratioP1;P1;durP2;ratioP2;P2;SDS_P1;SDS_P2;PMS_P1;PMS_P2;Temp;Humidity;BMP_temperature;BMP_pressure;BME280_temperature;BME280_humidity;BME280_pressure;Samples;Min_cycle;Max_cycle;Signal;HPM_P1;HPM_P2
2022/06/12 00:00:00;;;;;;;10.75;3.50;;;;;;;;;;5061894;28;20032;-63
2022/06/12 00:02:26;;;;;;;11.15;3.55;;;;;;;;;;5057640;28;20040;-63
2022/06/12 00:04:52;;;;;;;12.27;3.65;;;;;;;;;;5067816;28;20024;-63
2022/06/12 00:07:19;;;;;;;10.80;4.18;;;;;;;;;;5056055;28;20024;-63
2022/06/12 00:09:45;;;;;;;7.75;3.08;;;;;;;;;;5062908;28;20033;-63
2022/06/12 00:12:11;;;;;;;6.85;3.42;;;;;;;;;;5063292;28;20025;-63
2022/06/12 00:14:37;;;;;;;8.52;3.78;;;;;;;;;;5056270;28;20380;-63
2022/06/12 00:17:04;;;;;;;12.15;3.95;;;;;;;;;;5067569;28;20460;-63
2022/06/12 00:19:30;;;;;;;13.98;3.38;;;;;;;;;;5056459;28;20055;-63
2022/06/12 00:21:57;;;;;;;10.15;3.50;;;;;;;;;;5061386;28;20071;-63
2022/06/12 00:24:24;;;;;;;14.75;4.05;;;;;;;;;;5063782;28;20028;-63
2022/06/12 00:26:51;;;;;;;11.77;3.70;;;;;;;;;;5054583;28;20029;-63
2022/06/12 00:29:20;;;;;;;10.18;3.83;;;;;;;;;;5066074;28;20508;-63
2022/06/12 00:31:50;;;;;;;7.95;3.33;;;;;;;;;;5059362;28;20468;-63
2022/06/12 00:34:18;;;;;;;9.80;3.72;;;;;;;;;;5059029;28;20037;-63
2022/06/12 00:36:44;;;;;;;15.85;4.25;;;;;;;;;;5066758;28;20474;-63
2022/06/12 00:39:10;;;;;;;15.48;4.00;;;;;;;;;;5054289;28;20401;-63
2022/06/12 00:41:38;;;;;;;11.93;3.67;;;;;;;;;;5064709;28;20037;-63
2022/06/12 00:44:05;;;;;;;15.05;3.78;;;;;;;;;;5063433;28;20066;-63
2022/06/12 00:46:40;;;;;;;10.60;4.07;;;;;;;;;;5061136;28;20358;-63
2022/06/12 00:49:08;;;;;;;14.93;4.38;;;;;;;;;;5070947;28;20568;-63
2022/06/12 00:51:34;;;;;;;11.95;3.80;;;;;;;;;;5067786;28;20036;-63
2022/06/12 00:54:00;;;;;;;12.57;3.72;;;;;;;;;;5065343;28;20400;-63
2022/06/12 00:56:38;;;;;;;13.68;3.90;;;;;;;;;;5067668;28;20048;-63
2022/06/12 00:59:07;;;;;;;8.07;3.47;;;;;;;;;;5057459;28;20048;-63
2022/06/12 01:01:35;;;;;;;9.48;3.67;;;;;;;;;;5069009;28;20047;-63
2022/06/12 01:06:48;;;;;;;9.50;3.55;;;;;;;;;;5058500;28;20033;-63
2022/06/12 01:09:17;;;;;;;8.25;3.38;;;;;;;;;;5070184;28;21195;-63
2022/06/12 01:11:45;;;;;;;9.20;4.35;;;;;;;;;;5061702;28;20056;-63
2022/06/12 01:14:13;;;;;;;9.43;3.72;;;;;;;;;;5063415;28;20061;-63
2022/06/12 01:16:45;;;;;;;9.57;3.70;;;;;;;;;;5068986;28;20055;-63
2022/06/12 01:19:30;;;;;;;11.38;4.85;;;;;;;;;;5057309;28;20056;-63
2022/06/12 01:22:06;;;;;;;10.23;4.60;;;;;;;;;;5064061;28;20029;-63
2022/06/12 01:24:51;;;;;;;14.30;4.72;;;;;;;;;;5067770;28;20032;-63
2022/06/12 01:27:36;;;;;;;12.07;4.20;;;;;;;;;;5057020;28;20060;-63
2022/06/12 01:30:06;;;;;;;16.05;4.25;;;;;;;;;;5064124;28;20040;-63
2022/06/12 01:32:43;;;;;;;8.10;3.67;;;;;;;;;;5067480;28;20040;-63
2022/06/12 01:35:15;;;;;;;12.07;4.90;;;;;;;;;;5056640;28;20044;-63
2022/06/12 01:37:44;;;;;;;9.85;3.95;;;;;;;;;;5067707;28;20025;-63
2022/06/12 01:40:35;;;;;;;14.93;5.00;;;;;;;;;;5063862;28;20081;-63
2022/06/12 01:43:03;;;;;;;12.88;4.20;;;;;;;;;;5030463;28;20045;-63
2022/06/12 01:45:39;;;;;;;12.40;4.63;;;;;;;;;;5016255;28;20037;-63
2022/06/12 01:48:25;;;;;;;8.60;3.75;;;;;;;;;;5022409;28;20049;-63
2022/06/12 01:50:54;;;;;;;8.35;4.22;;;;;;;;;;5015882;28;20057;-63
2022/06/12 01:53:36;;;;;;;8.30;3.90;;;;;;;;;;5014457;28;20053;-63
2022/06/12 01:56:06;;;;;;;13.43;4.47;;;;;;;;;;5021806;28;20096;-63
2022/06/12 01:58:47;;;;;;;11.30;5.85;;;;;;;;;;5014003;28;20149;-63
2022/06/12 02:01:36;;;;;;;7.68;3.50;;;;;;;;;;5010761;28;20056;-63
2022/06/12 02:04:08;;;;;;;8.48;3.97;;;;;;;;;;4947145;28;20142;-63
2022/06/12 02:06:49;;;;;;;10.13;4.20;;;;;;;;;;4953113;29;20525;-63
2022/06/12 02:09:19;;;;;;;10.85;3.58;;;;;;;;;;4947360;29;20582;-63
2022/06/12 02:14:43;;;;;;;15.10;4.82;;;;;;;;;;4946580;29;20047;-63
2022/06/12 02:17:09;;;;;;;;;;;;;;;;;;4937055;29;20036;-63
2022/06/12 02:19:39;;;;;;;6.63;3.70;;;;;;;;;;4962525;28;20397;-63
2022/06/12 02:22:12;;;;;;;7.45;3.63;;;;;;;;;;4983297;28;20038;-63
2022/06/12 02:24:44;;;;;;;11.35;3.92;;;;;;;;;;4984974;28;20030;-63
2022/06/12 02:27:12;;;;;;;6.28;3.80;;;;;;;;;;4975131;28;20062;-63
2022/06/12 02:29:38;;;;;;;9.55;4.25;;;;;;;;;;4987022;28;20058;-63
2022/06/12 02:32:10;;;;;;;9.98;4.07;;;;;;;;;;4979949;28;20034;-63
2022/06/12 02:34:38;;;;;;;6.68;3.83;;;;;;;;;;4978792;28;20178;-63
2022/06/12 02:37:25;;;;;;;7.07;3.75;;;;;;;;;;4987650;28;20034;-63
2022/06/12 02:39:56;;;;;;;11.20;3.92;;;;;;;;;;4979203;28;20034;-63
2022/06/12 02:42:26;;;;;;;7.80;3.10;;;;;;;;;;5062310;28;20036;-63
2022/06/12 02:44:55;;;;;;;9.98;3.72;;;;;;;;;;5068663;28;20029;-63
2022/06/12 02:47:23;;;;;;;13.18;5.43;;;;;;;;;;5055281;28;20032;-63
2022/06/12 02:49:50;;;;;;;10.77;4.30;;;;;;;;;;5066694;28;20492;-63
2022/06/12 02:52:33;;;;;;;11.70;4.07;;;;;;;;;;5071193;28;20028;-63
2022/06/12 02:55:05;;;;;;;7.68;3.65;;;;;;;;;;5057015;28;20032;-63
2022/06/12 02:57:38;;;;;;;11.60;3.43;;;;;;;;;;5068455;28;20048;-63
2022/06/12 03:00:16;;;;;;;10.20;3.40;;;;;;;;;;5060049;28;20555;-63
2022/06/12 03:02:46;;;;;;;11.98;3.72;;;;;;;;;;5059128;28;20044;-63
2022/06/12 03:05:12;;;;;;;7.15;3.83;;;;;;;;;;5068480;28;20078;-63
2022/06/12 03:07:39;;;;;;;9.70;3.67;;;;;;;;;;5056156;28;20013;-63
2022/06/12 03:10:08;;;;;;;7.47;4.10;;;;;;;;;;5063750;28;20507;-63
2022/06/12 03:12:34;;;;;;;9.60;3.58;;;;;;;;;;5063819;28;20036;-63
2022/06/12 03:15:01;;;;;;;10.75;3.75;;;;;;;;;;5056910;28;20043;-63
2022/06/12 03:17:27;;;;;;;10.13;3.72;;;;;;;;;;5067345;28;20093;-63
2022/06/12 03:19:55;;;;;;;8.52;3.30;;;;;;;;;;5058066;28;20114;-63
2022/06/12 03:22:21;;;;;;;7.32;2.92;;;;;;;;;;5061820;28;20033;-63
2022/06/12 03:25:17;;;;;;;7.80;3.13;;;;;;;;;;5065456;28;20048;-63
2022/06/12 03:27:49;;;;;;;8.27;3.53;;;;;;;;;;5047161;28;20114;-63
2022/06/12 03:30:22;;;;;;;8.75;3.60;;;;;;;;;;5052492;28;20036;-63
2022/06/12 03:32:53;;;;;;;7.43;3.53;;;;;;;;;;5058804;28;20028;-63
2022/06/12 03:35:38;;;;;;;9.05;3.33;;;;;;;;;;5068164;28;20032;-63
2022/06/12 03:38:10;;;;;;;12.43;4.32;;;;;;;;;;5059062;28;20033;-63
2022/06/12 03:40:50;;;;;;;6.35;3.17;;;;;;;;;;5060484;28;20469;-63
2022/06/12 03:43:18;;;;;;;8.27;3.63;;;;;;;;;;5067944;28;20557;-63
2022/06/12 03:45:47;;;;;;;6.65;3.28;;;;;;;;;;5055557;28;20032;-63
2022/06/12 03:48:32;;;;;;;9.80;3.40;;;;;;;;;;5063695;28;20540;-63
2022/06/12 03:50:58;;;;;;;9.57;3.25;;;;;;;;;;5066010;28;20028;-63
2022/06/12 03:53:47;;;;;;;8.20;3.35;;;;;;;;;;5069076;28;20040;-63
2022/06/12 03:59:15;;;;;;;8.55;3.22;;;;;;;;;;5055441;28;20072;-63
2022/06/12 04:01:42;;;;;;;7.28;2.85;;;;;;;;;;5051504;28;20025;-63
2022/06/12 04:04:09;;;;;;;10.05;3.35;;;;;;;;;;5059828;28;20493;-63
2022/06/12 04:06:36;;;;;;;6.80;3.20;;;;;;;;;;5062092;28;20059;-63
2022/06/12 04:09:12;;;;;;;7.15;2.90;;;;;;;;;;5057190;28;20059;-63
2022/06/12 04:11:39;;;;;;;14.07;3.83;;;;;;;;;;5063252;28;20121;-63
2022/06/12 04:14:07;;;;;;;10.43;3.40;;;;;;;;;;5062204;28;20036;-63
2022/06/12 04:16:46;;;;;;;7.25;3.30;;;;;;;;;;5061536;28;20054;-63
2022/06/12 04:19:15;;;;;;;6.18;3.65;;;;;;;;;;5058574;28;20394;-63
2022/06/12 04:21:59;;;;;;;7.75;3.33;;;;;;;;;;5063265;28;20033;-63
2022/06/12 04:24:28;;;;;;;7.30;3.15;;;;;;;;;;5065993;28;20029;-63
2022/06/12 04:26:56;;;;;;;4.63;2.78;;;;;;;;;;5068514;28;20108;-63
2022/06/12 04:29:27;;;;;;;11.63;3.53;;;;;;;;;;5058230;28;20078;-63
2022/06/12 04:31:55;;;;;;;9.57;2.88;;;;;;;;;;5062094;28;20120;-63
2022/06/12 04:34:24;;;;;;;7.20;3.20;;;;;;;;;;5057822;28;20032;-63
2022/06/12 04:36:53;;;;;;;6.78;2.72;;;;;;;;;;5074933;28;20025;-63
2022/06/12 04:39:21;;;;;;;9.30;3.90;;;;;;;;;;5058988;28;20552;-63
2022/06/12 04:41:47;;;;;;;6.50;3.03;;;;;;;;;;5057753;28;20032;-63
2022/06/12 04:44:13;;;;;;;8.82;3.22;;;;;;;;;;5066442;28;20036;-63
2022/06/12 04:46:41;;;;;;;5.28;2.80;;;;;;;;;;5065332;28;20031;-63
2022/06/12 04:49:08;;;;;;;10.10;3.45;;;;;;;;;;5060604;28;20033;-63
2022/06/12 04:51:34;;;;;;;6.00;3.13;;;;;;;;;;5060824;28;20039;-63
2022/06/12 04:54:00;;;;;;;7.25;2.60;;;;;;;;;;5058842;28;20032;-66
2022/06/12 04:56:27;;;;;;;5.32;3.10;;;;;;;;;;5066776;28;20484;-63
2022/06/12 04:58:54;;;;;;;8.00;2.90;;;;;;;;;;5066534;28;20480;-63
2022/06/12 05:01:21;;;;;;;4.20;2.80;;;;;;;;;;5058805;28;20037;-63
2022/06/12 05:03:47;;;;;;;12.48;2.58;;;;;;;;;;5068551;28;20111;-64
2022/06/12 05:06:14;;;;;;;6.88;3.60;;;;;;;;;;5058229;28;20040;-64
2022/06/12 05:08:40;;;;;;;6.35;2.65;;;;;;;;;;5058575;28;20396;-63
2022/06/12 05:11:07;;;;;;;8.32;3.47;;;;;;;;;;5063367;28;20032;-63
2022/06/12 05:13:33;;;;;;;5.78;3.10;;;;;;;;;;5071005;28;20054;-63
2022/06/12 05:15:59;;;;;;;7.03;2.78;;;;;;;;;;5058700;28;20439;-63
2022/06/12 05:18:26;;;;;;;9.95;2.72;;;;;;;;;;5063566;28;20027;-63
2022/06/12 05:20:52;;;;;;;9.77;3.30;;;;;;;;;;5061109;28;20104;-63
2022/06/12 05:23:21;;;;;;;8.80;2.70;;;;;;;;;;5069351;28;20035;-63
2022/06/12 05:25:48;;;;;;;7.22;3.00;;;;;;;;;;5068366;28;20401;-63
2022/06/12 05:28:15;;;;;;;5.40;2.67;;;;;;;;;;5054028;28;20533;-63
2022/06/12 05:30:42;;;;;;;7.28;3.20;;;;;;;;;;5058216;28;20078;-63
2022/06/12 05:33:08;;;;;;;8.15;3.13;;;;;;;;;;5062864;28;20048;-63
2022/06/12 05:35:37;;;;;;;12.00;3.67;;;;;;;;;;5070074;28;20032;-64
2022/06/12 05:38:03;;;;;;;8.38;3.30;;;;;;;;;;5061578;28;20590;-64
2022/06/12 05:40:30;;;;;;;13.15;3.45;;;;;;;;;;5072101;28;20435;-64
2022/06/12 05:42:56;;;;;;;7.65;2.78;;;;;;;;;;5057761;28;20485;-64
2022/06/12 05:45:24;;;;;;;6.97;3.35;;;;;;;;;;5068566;28;20083;-64
2022/06/12 05:47:55;;;;;;;12.48;3.15;;;;;;;;;;5069631;28;20051;-64
2022/06/12 05:50:23;;;;;;;8.43;3.35;;;;;;;;;;5067933;28;20021;-64
2022/06/12 05:52:49;;;;;;;11.02;3.17;;;;;;;;;;5069174;28;20078;-64
2022/06/12 05:55:15;;;;;;;8.73;3.38;;;;;;;;;;5065008;28;20063;-64
2022/06/12 05:57:42;;;;;;;13.02;3.58;;;;;;;;;;5063324;28;20049;-64
2022/06/12 06:00:10;;;;;;;9.80;3.50;;;;;;;;;;5053685;28;20036;-64
2022/06/12 06:02:38;;;;;;;8.85;3.20;;;;;;;;;;5066323;28;20055;-64
2022/06/12 06:05:06;;;;;;;7.65;3.90;;;;;;;;;;5056676;28;20431;-64
2022/06/12 06:07:32;;;;;;;14.00;3.45;;;;;;;;;;5062003;28;20024;-64
2022/06/12 06:09:58;;;;;;;12.20;3.67;;;;;;;;;;5056100;28;20028;-64
2022/06/12 06:12:24;;;;;;;12.90;3.70;;;;;;;;;;5059739;28;20040;-64
2022/06/12 06:14:50;;;;;;;7.10;3.40;;;;;;;;;;5053718;28;20036;-64
2022/06/12 06:17:17;;;;;;;13.30;3.88;;;;;;;;;;5055967;28;20074;-64
2022/06/12 06:19:43;;;;;;;13.82;3.20;;;;;;;;;;5061608;28;20052;-64
2022/06/12 06:22:09;;;;;;;8.05;3.10;;;;;;;;;;5067953;28;20492;-64
2022/06/12 06:24:35;;;;;;;9.05;3.38;;;;;;;;;;5072455;28;20119;-64
2022/06/12 06:27:01;;;;;;;13.10;3.65;;;;;;;;;;5069296;28;20116;-64
2022/06/12 06:29:27;;;;;;;12.32;3.38;;;;;;;;;;5072869;28;20473;-64
2022/06/12 06:31:54;;;;;;;12.00;4.30;;;;;;;;;;5069888;28;20028;-65
2022/06/12 06:34:20;;;;;;;10.27;3.65;;;;;;;;;;5063859;28;20033;-64
2022/06/12 06:36:46;;;;;;;6.88;3.28;;;;;;;;;;5057017;28;20028;-64
2022/06/12 06:39:12;;;;;;;11.52;3.58;;;;;;;;;;5054883;28;20051;-64
2022/06/12 06:41:38;;;;;;;23.08;5.35;;;;;;;;;;5066669;28;20486;-64
2022/06/12 06:46:49;;;;;;;17.05;3.88;;;;;;;;;;5071441;28;20102;-64
2022/06/12 06:49:15;;;;;;;16.05;4.13;;;;;;;;;;5061883;28;20021;-64
2022/06/12 06:51:41;;;;;;;15.18;4.05;;;;;;;;;;5070625;28;20028;-64
2022/06/12 06:54:07;;;;;;;20.98;4.22;;;;;;;;;;5061797;28;20036;-64
2022/06/12 06:56:33;;;;;;;21.50;5.18;;;;;;;;;;5056516;28;20029;-65
2022/06/12 06:58:59;;;;;;;19.85;4.70;;;;;;;;;;5054328;28;20049;-64
2022/06/12 07:01:25;;;;;;;12.55;4.22;;;;;;;;;;5069568;28;20500;-64
2022/06/12 07:03:53;;;;;;;9.70;3.55;;;;;;;;;;5051267;28;20492;-64
2022/06/12 07:06:19;;;;;;;19.00;4.30;;;;;;;;;;5063514;28;20060;-64
2022/06/12 07:08:45;;;;;;;18.10;3.80;;;;;;;;;;5054379;28;20014;-64
2022/06/12 07:11:11;;;;;;;25.10;3.97;;;;;;;;;;5060135;28;20029;-64
2022/06/12 07:13:37;;;;;;;15.70;3.80;;;;;;;;;;5052548;28;20456;-63
2022/06/12 07:16:04;;;;;;;16.45;5.18;;;;;;;;;;5052772;28;20546;-64
2022/06/12 07:18:30;;;;;;;17.52;4.38;;;;;;;;;;5060345;28;20083;-63
2022/06/12 07:21:00;;;;;;;15.90;3.28;;;;;;;;;;5059528;28;20028;-64
2022/06/12 07:23:27;;;;;;;16.45;3.60;;;;;;;;;;5054632;28;20028;-64
2022/06/12 07:25:55;;;;;;;17.48;3.58;;;;;;;;;;5051638;28;20056;-64
2022/06/12 07:28:22;;;;;;;21.92;3.75;;;;;;;;;;5054008;28;20025;-64
2022/06/12 07:30:50;;;;;;;15.35;4.43;;;;;;;;;;5052716;28;20029;-64
2022/06/12 07:33:16;;;;;;;16.45;3.67;;;;;;;;;;5050056;28;20033;-63
2022/06/12 07:35:43;;;;;;;14.85;3.42;;;;;;;;;;5051924;28;20059;-63
2022/06/12 07:38:11;;;;;;;16.02;3.67;;;;;;;;;;5052198;28;20052;-64
2022/06/12 07:40:40;;;;;;;18.13;4.55;;;;;;;;;;5054551;28;20024;-63
2022/06/12 07:43:07;;;;;;;10.52;2.80;;;;;;;;;;5051109;28;20037;-64
2022/06/12 07:45:33;;;;;;;19.77;3.83;;;;;;;;;;5061754;28;20059;-64
2022/06/12 07:47:59;;;;;;;15.20;3.83;;;;;;;;;;5054481;28;20075;-64
2022/06/12 07:50:25;;;;;;;20.05;3.80;;;;;;;;;;5050596;28;20028;-63
2022/06/12 07:52:52;;;;;;;14.07;3.42;;;;;;;;;;5057370;28;20037;-64
2022/06/12 07:55:19;;;;;;;16.23;2.97;;;;;;;;;;5073517;28;20400;-63
2022/06/12 07:57:45;;;;;;;18.50;4.05;;;;;;;;;;5063338;28;20557;-64
2022/06/12 08:00:13;;;;;;;11.50;3.08;;;;;;;;;;5060094;28;20021;-63
2022/06/12 08:02:40;;;;;;;13.88;3.40;;;;;;;;;;5059865;28;20510;-75
2022/06/12 08:05:06;;;;;;;16.80;3.58;;;;;;;;;;5059223;28;20021;-64
2022/06/12 08:07:33;;;;;;;17.88;3.85;;;;;;;;;;5055498;28;20064;-64
2022/06/12 08:09:59;;;;;;;14.18;3.83;;;;;;;;;;5070063;28;20031;-64
2022/06/12 08:12:25;;;;;;;16.35;4.18;;;;;;;;;;5059790;28;20025;-64
2022/06/12 08:14:53;;;;;;;13.20;2.78;;;;;;;;;;5064203;28;20032;-63
2022/06/12 08:17:19;;;;;;;11.05;3.90;;;;;;;;;;5065252;28;20107;-64
2022/06/12 08:20:31;;;;;;;15.57;3.40;;;;;;;;;;5056331;28;20407;-64
2022/06/12 08:22:32;;;;;;;12.13;3.60;;;;;;;;;;5065676;28;20106;-64
2022/06/12 08:24:58;;;;;;;11.50;3.25;;;;;;;;;;5061911;28;20033;-64
2022/06/12 08:27:24;;;;;;;13.30;3.38;;;;;;;;;;5059267;28;20029;-64
2022/06/12 08:29:50;;;;;;;16.38;3.45;;;;;;;;;;5059605;28;20051;-64
2022/06/12 08:32:20;;;;;;;16.45;3.20;;;;;;;;;;5056917;28;20040;-64
2022/06/12 08:34:48;;;;;;;18.02;3.13;;;;;;;;;;5059693;28;20423;-64
2022/06/12 08:37:17;;;;;;;13.80;3.78;;;;;;;;;;5057283;28;20037;-64
2022/06/12 08:39:43;;;;;;;15.35;3.00;;;;;;;;;;5055654;28;20037;-64
2022/06/12 08:42:15;;;;;;;15.07;2.67;;;;;;;;;;5056695;28;20032;-64
2022/06/12 08:44:50;;;;;;;15.45;4.20;;;;;;;;;;5055273;28;20055;-64
2022/06/12 08:47:19;;;;;;;16.00;3.22;;;;;;;;;;5057966;28;20443;-64
2022/06/12 08:49:45;;;;;;;16.77;3.25;;;;;;;;;;5060313;28;20083;-64
2022/06/12 08:52:11;;;;;;;18.42;3.05;;;;;;;;;;5057719;28;20526;-64
2022/06/12 08:54:39;;;;;;;14.55;3.58;;;;;;;;;;5055300;28;20025;-64
2022/06/12 08:57:08;;;;;;;21.27;3.50;;;;;;;;;;5062095;28;20044;-64
2022/06/12 08:59:36;;;;;;;13.70;3.85;;;;;;;;;;5053350;28;20028;-64
2022/06/12 09:02:05;;;;;;;9.60;3.10;;;;;;;;;;5053764;28;20063;-64
2022/06/12 09:04:31;;;;;;;11.95;3.78;;;;;;;;;;5054827;28;20488;-64
2022/06/12 09:06:57;;;;;;;9.68;2.85;;;;;;;;;;5056340;28;20021;-64
2022/06/12 09:09:26;;;;;;;9.57;2.75;;;;;;;;;;5059245;28;20395;-64
2022/06/12 09:11:52;;;;;;;9.02;2.72;;;;;;;;;;5055322;28;20070;-64
2022/06/12 09:14:28;;;;;;;18.02;4.60;;;;;;;;;;5057289;28;20063;-64
2022/06/12 09:16:58;;;;;;;15.88;3.10;;;;;;;;;;5051773;28;20076;-64
2022/06/12 09:19:38;;;;;;;11.27;2.80;;;;;;;;;;5055375;28;20029;-64
2022/06/12 09:22:19;;;;;;;17.38;3.33;;;;;;;;;;5054126;28;20485;-64
2022/06/12 09:24:51;;;;;;;12.52;3.10;;;;;;;;;;5052052;28;20080;-64
2022/06/12 09:27:23;;;;;;;15.60;2.83;;;;;;;;;;5057835;28;20035;-64
2022/06/12 09:29:52;;;;;;;16.70;3.08;;;;;;;;;;5053395;28;20495;-64
2022/06/12 09:32:21;;;;;;;10.70;3.20;;;;;;;;;;5055624;28;20035;-64
2022/06/12 09:34:54;;;;;;;12.30;3.20;;;;;;;;;;5053450;28;20494;-64
2022/06/12 09:40:37;;;;;;;12.05;2.92;;;;;;;;;;5057644;28;20029;-63
2022/06/12 09:43:12;;;;;;;14.73;3.13;;;;;;;;;;5055995;28;20035;-64
2022/06/12 09:45:50;;;;;;;16.88;3.55;;;;;;;;;;5055222;28;20016;-64
2022/06/12 09:48:20;;;;;;;17.83;3.22;;;;;;;;;;5052449;28;20526;-64
2022/06/12 09:51:01;;;;;;;16.77;3.80;;;;;;;;;;5053855;28;20025;-64
2022/06/12 09:53:37;;;;;;;15.02;3.20;;;;;;;;;;5055626;28;20036;-64
2022/06/12 09:56:27;;;;;;;13.45;3.30;;;;;;;;;;5052160;28;20497;-63
2022/06/12 09:59:14;;;;;;;14.60;3.50;;;;;;;;;;5053797;28;20471;-63
2022/06/12 10:01:43;;;;;;;14.52;3.13;;;;;;;;;;5058322;28;20068;-63
2022/06/12 10:04:28;;;;;;;11.82;2.70;;;;;;;;;;5054733;28;20021;-63
2022/06/12 10:06:58;;;;;;;18.75;3.47;;;;;;;;;;5059884;28;20111;-63
2022/06/12 10:09:24;;;;;;;12.93;3.35;;;;;;;;;;5055421;28;20024;-63
2022/06/12 10:12:00;;;;;;;13.05;2.85;;;;;;;;;;5054760;28;20036;-63
2022/06/12 10:14:29;;;;;;;11.75;2.33;;;;;;;;;;5053763;28;20174;-63
2022/06/12 10:16:59;;;;;;;11.57;3.15;;;;;;;;;;5057655;28;20086;-63
2022/06/12 10:19:33;;;;;;;12.90;3.10;;;;;;;;;;5053267;28;20141;-63
2022/06/12 10:22:01;;;;;;;12.68;2.67;;;;;;;;;;5060442;28;20037;-63
2022/06/12 10:24:27;;;;;;;16.65;3.35;;;;;;;;;;5058176;28;20158;-63
2022/06/12 10:27:14;;;;;;;13.00;3.08;;;;;;;;;;5058637;28;20028;-63
2022/06/12 10:29:48;;;;;;;10.77;2.85;;;;;;;;;;5059403;28;20025;-63
2022/06/12 10:32:16;;;;;;;15.55;4.15;;;;;;;;;;5055188;28;20028;-63
2022/06/12 10:34:42;;;;;;;12.75;5.05;;;;;;;;;;5063547;28;20040;-63
2022/06/12 10:37:24;;;;;;;12.88;2.60;;;;;;;;;;5059941;28;20051;-63
2022/06/12 10:40:21;;;;;;;10.93;2.88;;;;;;;;;;5060175;28;20032;-63
2022/06/12 10:43:08;;;;;;;10.32;2.90;;;;;;;;;;5065129;28;20063;-63
2022/06/12 10:45:36;;;;;;;14.35;2.95;;;;;;;;;;5061871;28;20393;-64
2022/06/12 10:48:19;;;;;;;14.90;4.95;;;;;;;;;;5068199;28;20480;-64
2022/06/12 10:50:45;;;;;;;;;;;;;;;;;;5064975;28;20492;-64
2022/06/12 10:53:11;;;;;;;11.25;3.80;;;;;;;;;;5066735;28;19912;-64
2022/06/12 10:55:57;;;;;;;12.38;2.67;;;;;;;;;;5071512;28;20020;-64
2022/06/12 10:58:32;;;;;;;9.43;2.50;;;;;;;;;;5053464;28;20546;-64
2022/06/12 11:01:02;;;;;;;22.90;8.00;;;;;;;;;;5056455;28;20063;-63
2022/06/12 11:03:29;;;;;;;15.60;3.25;;;;;;;;;;5051619;28;20025;-64
2022/06/12 11:06:11;;;;;;;7.72;3.40;;;;;;;;;;5057799;28;20045;-64
2022/06/12 11:08:46;;;;;;;11.63;2.83;;;;;;;;;;5051708;28;20049;-64
2022/06/12 11:11:31;;;;;;;12.90;2.30;;;;;;;;;;5050620;28;20045;-64
2022/06/12 11:14:21;;;;;;;12.23;3.10;;;;;;;;;;5057722;28;20111;-63
2022/06/12 11:16:50;;;;;;;16.20;4.32;;;;;;;;;;5054900;28;20040;-63
2022/06/12 11:19:16;;;;;;;18.98;2.35;;;;;;;;;;5058331;28;20374;-63
2022/06/12 11:21:42;;;;;;;13.15;2.63;;;;;;;;;;5052654;28;20877;-63
2022/06/12 11:24:17;;;;;;;10.32;3.33;;;;;;;;;;5055974;28;20027;-64
2022/06/12 11:26:43;;;;;;;7.68;2.00;;;;;;;;;;5054827;28;20945;-63
2022/06/12 11:29:27;;;;;;;10.90;2.17;;;;;;;;;;5059641;28;20107;-63
2022/06/12 11:31:58;;;;;;;5.57;1.85;;;;;;;;;;5061416;28;20032;-63
2022/06/12 11:34:27;;;;;;;12.93;2.78;;;;;;;;;;5050629;28;20029;-63
2022/06/12 11:37:09;;;;;;;11.07;3.10;;;;;;;;;;5052910;28;20104;-63
2022/06/12 11:39:43;;;;;;;11.75;5.13;;;;;;;;;;5050715;28;20060;-63
2022/06/12 11:42:09;;;;;;;9.50;2.25;;;;;;;;;;5047945;28;20033;-63
2022/06/12 11:44:35;;;;;;;8.35;2.42;;;;;;;;;;5045509;28;20370;-63
2022/06/12 11:47:02;;;;;;;13.30;5.03;;;;;;;;;;5052124;28;20066;-63
2022/06/12 11:49:28;;;;;;;11.02;2.08;;;;;;;;;;5054885;28;20031;-63
2022/06/12 11:52:07;;;;;;;33.00;14.07;;;;;;;;;;5053883;28;20048;-63
2022/06/12 11:54:34;;;;;;;26.67;12.65;;;;;;;;;;5052080;28;20374;-63
2022/06/12 11:57:18;;;;;;;18.95;8.57;;;;;;;;;;5051845;28;20067;-63
2022/06/12 11:59:47;;;;;;;10.27;4.50;;;;;;;;;;5051097;28;20561;-63
2022/06/12 12:02:23;;;;;;;10.55;1.98;;;;;;;;;;5050897;28;20029;-63
2022/06/12 12:05:04;;;;;;;10.30;2.78;;;;;;;;;;5050632;28;20500;-63
2022/06/12 12:07:49;;;;;;;19.20;2.95;;;;;;;;;;5053757;28;20105;-64
2022/06/12 12:10:30;;;;;;;10.57;1.90;;;;;;;;;;5050262;28;20025;-63
2022/06/12 12:13:01;;;;;;;10.13;2.20;;;;;;;;;;5050470;28;20036;-63
2022/06/12 12:15:30;;;;;;;6.65;1.55;;;;;;;;;;5059990;28;20036;-63
2022/06/12 12:17:57;;;;;;;10.73;2.22;;;;;;;;;;5054194;28;20477;-63
2022/06/12 12:20:26;;;;;;;11.10;2.00;;;;;;;;;;5052067;28;20029;-63
2022/06/12 12:23:06;;;;;;;7.82;2.03;;;;;;;;;;5050084;28;20027;-63
2022/06/12 12:25:50;;;;;;;13.00;2.83;;;;;;;;;;5054147;28;20711;-64
2022/06/12 12:28:35;;;;;;;8.30;3.03;;;;;;;;;;5052619;28;20028;-64
2022/06/12 12:31:04;;;;;;;11.05;2.03;;;;;;;;;;5060020;28;20025;-64
2022/06/12 12:33:30;;;;;;;14.70;2.55;;;;;;;;;;5051935;28;20086;-63
2022/06/12 12:41:43;;;;;;;12.20;1.90;;;;;;;;;;5055784;28;20040;-64
2022/06/12 12:44:10;;;;;;;5.95;1.90;;;;;;;;;;5057918;28;20021;-63
2022/06/12 12:47:02;;;;;;;7.25;1.92;;;;;;;;;;5059008;28;20031;-63
2022/06/12 12:49:30;;;;;;;12.07;3.20;;;;;;;;;;5066035;28;20037;-63
2022/06/12 12:52:08;;;;;;;9.32;2.10;;;;;;;;;;5053360;28;20039;-64
2022/06/12 12:54:44;;;;;;;8.38;2.60;;;;;;;;;;5058941;28;20424;-63
2022/06/12 12:57:10;;;;;;;9.43;1.80;;;;;;;;;;5056053;28;20068;-63
2022/06/12 12:59:42;;;;;;;14.15;3.38;;;;;;;;;;5054700;28;20036;-75
2022/06/12 13:02:22;;;;;;;8.38;1.98;;;;;;;;;;5054122;28;20063;-64
2022/06/12 13:04:49;;;;;;;6.72;1.85;;;;;;;;;;5063882;28;20036;-64
2022/06/12 13:07:15;;;;;;;5.35;1.90;;;;;;;;;;5063712;28;20048;-64
2022/06/12 13:09:56;;;;;;;4.00;1.20;;;;;;;;;;5055670;28;20459;-64
2022/06/12 13:12:31;;;;;;;6.72;1.50;;;;;;;;;;5063736;28;20031;-64
2022/06/12 13:14:58;;;;;;;7.40;1.77;;;;;;;;;;5057902;28;20024;-64
2022/06/12 13:17:47;;;;;;;6.85;2.05;;;;;;;;;;5066964;28;20024;-64
2022/06/12 13:20:31;;;;;;;9.30;2.67;;;;;;;;;;5054707;28;20061;-64
2022/06/12 13:22:57;;;;;;;9.27;2.30;;;;;;;;;;5065505;28;20032;-64
2022/06/12 13:25:31;;;;;;;8.45;2.10;;;;;;;;;;5060519;28;20029;-64
2022/06/12 13:27:59;;;;;;;9.23;1.77;;;;;;;;;;5068921;28;20052;-64
2022/06/12 13:30:25;;;;;;;9.25;2.67;;;;;;;;;;5073120;28;20067;-64
2022/06/12 13:32:51;;;;;;;9.30;2.08;;;;;;;;;;5066873;28;20553;-64
2022/06/12 13:35:21;;;;;;;14.57;2.53;;;;;;;;;;5066626;28;20032;-64
2022/06/12 13:37:48;;;;;;;11.48;2.10;;;;;;;;;;5066616;28;20025;-64
2022/06/12 13:40:25;;;;;;;7.20;2.05;;;;;;;;;;5056290;28;20120;-64
2022/06/12 13:42:51;;;;;;;14.18;1.98;;;;;;;;;;5068944;28;20111;-64
2022/06/12 13:45:20;;;;;;;12.27;3.50;;;;;;;;;;5064894;28;20032;-64
2022/06/12 13:47:46;;;;;;;8.25;2.22;;;;;;;;;;5061845;28;20484;-64
2022/06/12 13:50:18;;;;;;;11.32;2.10;;;;;;;;;;5062788;28;20021;-64
2022/06/12 13:52:57;;;;;;;10.00;2.70;;;;;;;;;;5061261;28;20028;-64
2022/06/12 13:55:29;;;;;;;19.13;3.45;;;;;;;;;;5062481;28;20497;-64
2022/06/12 13:57:56;;;;;;;6.57;2.58;;;;;;;;;;5069096;28;20109;-64
2022/06/12 14:00:37;;;;;;;10.25;2.10;;;;;;;;;;5063771;28;20051;-64
2022/06/12 14:03:04;;;;;;;10.30;2.83;;;;;;;;;;5063470;28;20044;-64
2022/06/12 14:05:32;;;;;;;14.90;2.80;;;;;;;;;;5061331;28;20032;-64
2022/06/12 14:08:01;;;;;;;16.05;2.92;;;;;;;;;;5068832;28;20040;-64
2022/06/12 14:10:36;;;;;;;10.75;2.58;;;;;;;;;;5069424;28;20028;-64
2022/06/12 14:13:06;;;;;;;10.55;2.58;;;;;;;;;;5069941;28;20025;-64
2022/06/12 14:15:40;;;;;;;18.08;2.38;;;;;;;;;;5063655;28;20040;-64
2022/06/12 14:18:07;;;;;;;12.35;2.88;;;;;;;;;;5072777;28;20391;-64
2022/06/12 14:20:37;;;;;;;15.82;2.90;;;;;;;;;;5072418;28;20570;-64
2022/06/12 14:23:16;;;;;;;9.93;2.75;;;;;;;;;;5066394;28;20064;-64
2022/06/12 14:25:49;;;;;;;11.55;3.05;;;;;;;;;;5067669;28;20036;-64
2022/06/12 14:28:15;;;;;;;19.63;3.20;;;;;;;;;;5069353;28;20108;-64
2022/06/12 14:30:41;;;;;;;14.27;3.40;;;;;;;;;;5060334;28;20031;-64
2022/06/12 14:33:26;;;;;;;17.85;2.38;;;;;;;;;;5070162;28;20036;-64
2022/06/12 14:35:52;;;;;;;13.77;2.95;;;;;;;;;;5071622;28;20034;-64
2022/06/12 14:38:19;;;;;;;9.20;3.17;;;;;;;;;;5070430;28;20433;-64
2022/06/12 14:40:46;;;;;;;10.23;2.10;;;;;;;;;;5061207;28;20404;-64
2022/06/12 14:43:12;;;;;;;10.07;2.08;;;;;;;;;;5063735;28;20037;-64
2022/06/12 14:45:41;;;;;;;13.30;2.22;;;;;;;;;;5065635;28;20021;-64
2022/06/12 14:48:14;;;;;;;13.25;1.95;;;;;;;;;;5064210;28;20021;-64
2022/06/12 14:50:41;;;;;;;13.13;2.67;;;;;;;;;;5056185;28;20465;-64
2022/06/12 14:53:08;;;;;;;11.90;2.15;;;;;;;;;;5062498;28;20021;-64
2022/06/12 14:55:34;;;;;;;9.40;2.15;;;;;;;;;;5068441;28;20489;-64
2022/06/12 14:58:00;;;;;;;11.30;2.17;;;;;;;;;;5069010;28;20127;-64
2022/06/12 15:00:27;;;;;;;9.30;2.60;;;;;;;;;;5058268;28;20032;-64
2022/06/12 15:02:53;;;;;;;8.25;2.05;;;;;;;;;;5058756;28;20111;-64
2022/06/12 15:05:23;;;;;;;12.02;2.65;;;;;;;;;;5063856;28;20032;-64
2022/06/12 15:07:49;;;;;;;8.48;2.30;;;;;;;;;;5063655;28;20029;-64
2022/06/12 15:10:15;;;;;;;6.13;1.75;;;;;;;;;;5055226;28;20025;-64
2022/06/12 15:12:41;;;;;;;7.40;2.08;;;;;;;;;;5067640;28;20108;-64
2022/06/12 15:15:18;;;;;;;9.60;2.80;;;;;;;;;;5070903;28;20063;-64